sensor_id;sensor_type;location;lat;lon;timestamp;P1;durP1;ratioP1;P2;durP2;ratioP2
7340;SDS011;6870;50.944;6.932;2023-10-13T00:00:41;2.77;;;2.03;;
7340;SDS011;6870;50.944;6.932;2023-10-13T00:03:11;5.50;;;3.43;;
7340;SDS011;6870;50.944;6.932;2023-10-13T00:05:44;4.63;;;3.13;;
7340;SDS011;6870;50.944;6.932;2023-10-13T00:08:12;4.10;;;3.07;;
7340;SDS011;6870;50.944;6.932;2023-10-13T00:10:41;5.23;;;3.00;;
7340;SDS011;6870;50.944;6.932;2023-10-13T00:13:10;4.30;;;2.90;;
7340;SDS011;6870;50.944;6.932;2023-10-13T00:15:39;3.00;;;2.30;;
7340;SDS011;6870;50.944;6.932;2023-10-13T00:18:12;4.30;;;3.20;;
7340;SDS011;6870;50.944;6.932;2023-10-13T00:20:41;4.80;;;3.03;;
7340;SDS011;6870;50.944;6.932;2023-10-13T00:23:17;5.70;;;3.53;;
7340;SDS011;6870;50.944;6.932;2023-10-13T00:25:48;7.37;;;3.00;;
7340;SDS011;6870;50.944;6.932;2023-10-13T00:28:23;4.30;;;2.90;;
7340;SDS011;6870;50.944;6.932;2023-10-13T00:30:54;4.17;;;2.57;;
7340;SDS011;6870;50.944;6.932;2023-10-13T00:33:29;6.53;;;3.17;;
7340;SDS011;6870;50.944;6.932;2023-10-13T00:35:58;3.70;;;2.83;;
7340;SDS011;6870;50.944;6.932;2023-10-13T00:38:29;5.20;;;2.60;;
7340;SDS011;6870;50.944;6.932;2023-10-13T00:40:57;4.20;;;2.90;;
7340;SDS011;6870;50.944;6.932;2023-10-13T00:43:30;3.70;;;2.60;;
7340;SDS011;6870;50.944;6.932;2023-10-13T00:46:04;3.70;;;2.40;;
7340;SDS011;6870;50.944;6.932;2023-10-13T00:48:40;4.80;;;3.70;;
7340;SDS011;6870;50.944;6.932;2023-10-13T00:51:17;4.63;;;3.50;;
7340;SDS011;6870;50.944;6.932;2023-10-13T00:53:50;3.30;;;2.53;;
7340;SDS011;6870;50.944;6.932;2023-10-13T00:56:18;4.13;;;2.80;;
7340;SDS011;6870;50.944;6.932;2023-10-13T00:58:48;6.43;;;3.53;;
7340;SDS011;6870;50.944;6.932;2023-10-13T01:01:18;4.90;;;3.07;;
7340;SDS011;6870;50.944;6.932;2023-10-13T01:03:48;10.00;;;2.80;;
7340;SDS011;6870;50.944;6.932;2023-10-13T01:06:21;7.50;;;3.17;;
7340;SDS011;6870;50.944;6.932;2023-10-13T01:08:59;4.83;;;2.70;;
7340;SDS011;6870;50.944;6.932;2023-10-13T01:11:37;14.93;;;3.33;;
7340;SDS011;6870;50.944;6.932;2023-10-13T01:14:10;6.70;;;2.70;;
7340;SDS011;6870;50.944;6.932;2023-10-13T01:16:38;3.10;;;2.80;;
7340;SDS011;6870;50.944;6.932;2023-10-13T01:19:10;3.90;;;2.83;;
7340;SDS011;6870;50.944;6.932;2023-10-13T01:21:38;4.53;;;2.80;;
7340;SDS011;6870;50.944;6.932;2023-10-13T01:24:09;5.23;;;2.60;;
7340;SDS011;6870;50.944;6.932;2023-10-13T01:26:40;4.57;;;2.60;;
7340;SDS011;6870;50.944;6.932;2023-10-13T01:29:09;5.30;;;2.90;;
7340;SDS011;6870;50.944;6.932;2023-10-13T01:31:40;4.60;;;3.07;;
7340;SDS011;6870;50.944;6.932;2023-10-13T01:34:13;4.20;;;2.63;;
7340;SDS011;6870;50.944;6.932;2023-10-13T01:36:48;4.00;;;2.47;;
7340;SDS011;6870;50.944;6.932;2023-10-13T01:39:18;4.70;;;3.37;;
7340;SDS011;6870;50.944;6.932;2023-10-13T01:41:48;5.40;;;2.93;;
7340;SDS011;6870;50.944;6.932;2023-10-13T01:44:22;3.23;;;2.27;;
7340;SDS011;6870;50.944;6.932;2023-10-13T01:46:49;3.20;;;2.30;;
7340;SDS011;6870;50.944;6.932;2023-10-13T01:49:18;3.50;;;2.60;;
7340;SDS011;6870;50.944;6.932;2023-10-13T01:51:48;3.33;;;2.30;;
7340;SDS011;6870;50.944;6.932;2023-10-13T01:54:16;2.90;;;2.13;;
7340;SDS011;6870;50.944;6.932;2023-10-13T01:56:47;3.93;;;2.37;;
7340;SDS011;6870;50.944;6.932;2023-10-13T01:59:16;3.17;;;2.40;;
7340;SDS011;6870;50.944;6.932;2023-10-13T02:01:44;2.80;;;2.20;;
7340;SDS011;6870;50.944;6.932;2023-10-13T02:04:12;7.43;;;3.50;;
7340;SDS011;6870;50.944;6.932;2023-10-13T02:06:40;3.10;;;2.37;;
7340;SDS011;6870;50.944;6.932;2023-10-13T02:09:09;3.20;;;2.40;;
7340;SDS011;6870;50.944;6.932;2023-10-13T02:11:40;3.67;;;2.80;;
7340;SDS011;6870;50.944;6.932;2023-10-13T02:14:12;4.33;;;2.83;;
7340;SDS011;6870;50.944;6.932;2023-10-13T02:16:42;3.03;;;2.10;;
7340;SDS011;6870;50.944;6.932;2023-10-13T02:19:16;7.23;;;2.80;;
7340;SDS011;6870;50.944;6.932;2023-10-13T02:21:46;3.57;;;2.60;;
7340;SDS011;6870;50.944;6.932;2023-10-13T02:24:24;3.50;;;2.70;;
7340;SDS011;6870;50.944;6.932;2023-10-13T02:26:57;3.43;;;2.40;;
7340;SDS011;6870;50.944;6.932;2023-10-13T02:29:40;2.97;;;2.37;;
7340;SDS011;6870;50.944;6.932;2023-10-13T02:32:08;3.67;;;2.60;;
7340;SDS011;6870;50.944;6.932;2023-10-13T02:34:44;3.97;;;2.50;;
7340;SDS011;6870;50.944;6.932;2023-10-13T02:37:12;2.67;;;2.40;;
7340;SDS011;6870;50.944;6.932;2023-10-13T02:39:40;3.13;;;2.13;;
7340;SDS011;6870;50.944;6.932;2023-10-13T02:42:09;5.13;;;3.30;;
7340;SDS011;6870;50.944;6.932;2023-10-13T02:44:49;3.63;;;2.60;;
7340;SDS011;6870;50.944;6.932;2023-10-13T02:47:17;3.97;;;2.60;;
7340;SDS011;6870;50.944;6.932;2023-10-13T02:49:46;4.90;;;2.57;;
7340;SDS011;6870;50.944;6.932;2023-10-13T02:52:14;3.23;;;2.80;;
7340;SDS011;6870;50.944;6.932;2023-10-13T02:54:42;3.53;;;2.73;;
7340;SDS011;6870;50.944;6.932;2023-10-13T02:57:14;3.80;;;2.60;;
7340;SDS011;6870;50.944;6.932;2023-10-13T02:59:43;2.90;;;2.37;;
7340;SDS011;6870;50.944;6.932;2023-10-13T03:02:13;2.13;;;1.93;;
7340;SDS011;6870;50.944;6.932;2023-10-13T03:04:50;2.93;;;2.17;;
7340;SDS011;6870;50.944;6.932;2023-10-13T03:07:26;5.20;;;2.70;;
7340;SDS011;6870;50.944;6.932;2023-10-13T03:09:56;2.73;;;2.00;;
7340;SDS011;6870;50.944;6.932;2023-10-13T03:12:29;3.53;;;2.30;;
7340;SDS011;6870;50.944;6.932;2023-10-13T03:14:59;3.23;;;2.13;;
7340;SDS011;6870;50.944;6.932;2023-10-13T03:17:38;4.47;;;2.97;;
7340;SDS011;6870;50.944;6.932;2023-10-13T03:20:10;10.47;;;2.83;;
7340;SDS011;6870;50.944;6.932;2023-10-13T03:22:39;4.23;;;2.57;;
7340;SDS011;6870;50.944;6.932;2023-10-13T03:25:11;4.10;;;2.43;;
7340;SDS011;6870;50.944;6.932;2023-10-13T03:27:45;4.30;;;2.90;;
7340;SDS011;6870;50.944;6.932;2023-10-13T03:30:28;4.57;;;2.70;;
7340;SDS011;6870;50.944;6.932;2023-10-13T03:33:05;3.50;;;2.10;;
7340;SDS011;6870;50.944;6.932;2023-10-13T03:35:36;3.57;;;2.50;;
7340;SDS011;6870;50.944;6.932;2023-10-13T03:38:06;3.87;;;2.80;;
7340;SDS011;6870;50.944;6.932;2023-10-13T03:40:43;2.10;;;1.80;;
7340;SDS011;6870;50.944;6.932;2023-10-13T03:43:33;3.70;;;2.50;;
7340;SDS011;6870;50.944;6.932;2023-10-13T03:46:11;3.07;;;2.43;;
7340;SDS011;6870;50.944;6.932;2023-10-13T03:48:39;3.77;;;2.90;;
7340;SDS011;6870;50.944;6.932;2023-10-13T03:51:20;3.53;;;2.47;;
7340;SDS011;6870;50.944;6.932;2023-10-13T03:53:57;2.80;;;2.30;;
7340;SDS011;6870;50.944;6.932;2023-10-13T03:56:26;3.10;;;2.10;;
7340;SDS011;6870;50.944;6.932;2023-10-13T03:59:06;3.50;;;2.30;;
7340;SDS011;6870;50.944;6.932;2023-10-13T04:01:36;2.83;;;1.90;;
7340;SDS011;6870;50.944;6.932;2023-10-13T04:04:12;3.83;;;2.37;;
7340;SDS011;6870;50.944;6.932;2023-10-13T04:06:55;4.13;;;2.17;;
7340;SDS011;6870;50.944;6.932;2023-10-13T04:09:39;2.90;;;2.20;;
7340;SDS011;6870;50.944;6.932;2023-10-13T04:12:24;3.97;;;2.63;;
7340;SDS011;6870;50.944;6.932;2023-10-13T04:15:11;3.17;;;2.63;;
7340;SDS011;6870;50.944;6.932;2023-10-13T04:17:47;3.83;;;2.87;;
7340;SDS011;6870;50.944;6.932;2023-10-13T04:20:17;2.80;;;2.07;;
7340;SDS011;6870;50.944;6.932;2023-10-13T04:23:01;3.30;;;2.60;;
7340;SDS011;6870;50.944;6.932;2023-10-13T04:25:47;2.40;;;2.00;;
7340;SDS011;6870;50.944;6.932;2023-10-13T04:28:47;2.93;;;2.53;;
7340;SDS011;6870;50.944;6.932;2023-10-13T04:31:20;2.90;;;1.97;;
7340;SDS011;6870;50.944;6.932;2023-10-13T04:34:10;2.37;;;2.10;;
7340;SDS011;6870;50.944;6.932;2023-10-13T04:36:46;3.10;;;2.03;;
7340;SDS011;6870;50.944;6.932;2023-10-13T04:39:13;2.70;;;2.30;;
7340;SDS011;6870;50.944;6.932;2023-10-13T04:41:55;2.70;;;1.80;;
7340;SDS011;6870;50.944;6.932;2023-10-13T04:44:24;3.23;;;2.60;;
7340;SDS011;6870;50.944;6.932;2023-10-13T04:47:12;3.00;;;2.43;;
7340;SDS011;6870;50.944;6.932;2023-10-13T04:49:47;3.50;;;2.23;;
7340;SDS011;6870;50.944;6.932;2023-10-13T04:52:24;4.20;;;2.80;;
7340;SDS011;6870;50.944;6.932;2023-10-13T04:55:10;3.20;;;2.43;;
7340;SDS011;6870;50.944;6.932;2023-10-13T04:57:51;2.83;;;2.53;;
7340;SDS011;6870;50.944;6.932;2023-10-13T05:00:26;2.37;;;2.17;;
7340;SDS011;6870;50.944;6.932;2023-10-13T05:03:13;3.13;;;1.90;;
7340;SDS011;6870;50.944;6.932;2023-10-13T05:06:17;2.93;;;2.40;;
7340;SDS011;6870;50.944;6.932;2023-10-13T05:09:03;2.70;;;1.67;;
7340;SDS011;6870;50.944;6.932;2023-10-13T05:11:51;3.40;;;2.27;;
7340;SDS011;6870;50.944;6.932;2023-10-13T05:14:36;3.10;;;2.50;;
7340;SDS011;6870;50.944;6.932;2023-10-13T05:17:23;5.93;;;2.27;;
7340;SDS011;6870;50.944;6.932;2023-10-13T05:20:10;6.27;;;2.30;;
7340;SDS011;6870;50.944;6.932;2023-10-13T05:22:56;3.60;;;2.20;;
7340;SDS011;6870;50.944;6.932;2023-10-13T05:25:56;2.73;;;1.70;;
7340;SDS011;6870;50.944;6.932;2023-10-13T05:28:46;4.07;;;2.50;;
7340;SDS011;6870;50.944;6.932;2023-10-13T05:31:51;2.73;;;2.37;;
7340;SDS011;6870;50.944;6.932;2023-10-13T05:34:37;2.60;;;2.10;;
7340;SDS011;6870;50.944;6.932;2023-10-13T05:37:24;4.90;;;2.23;;
7340;SDS011;6870;50.944;6.932;2023-10-13T05:40:10;7.07;;;2.23;;
7340;SDS011;6870;50.944;6.932;2023-10-13T05:42:56;2.40;;;1.83;;
7340;SDS011;6870;50.944;6.932;2023-10-13T05:45:42;3.43;;;2.17;;
7340;SDS011;6870;50.944;6.932;2023-10-13T05:48:24;2.70;;;2.17;;
7340;SDS011;6870;50.944;6.932;2023-10-13T05:51:07;3.27;;;2.40;;
7340;SDS011;6870;50.944;6.932;2023-10-13T05:53:55;3.27;;;2.57;;
7340;SDS011;6870;50.944;6.932;2023-10-13T05:56:41;2.97;;;2.20;;
7340;SDS011;6870;50.944;6.932;2023-10-13T05:59:27;2.30;;;1.80;;
7340;SDS011;6870;50.944;6.932;2023-10-13T06:02:14;2.57;;;1.97;;
7340;SDS011;6870;50.944;6.932;2023-10-13T06:05:01;2.57;;;1.70;;
7340;SDS011;6870;50.944;6.932;2023-10-13T06:07:47;3.60;;;2.43;;
7340;SDS011;6870;50.944;6.932;2023-10-13T06:10:34;2.27;;;1.67;;
7340;SDS011;6870;50.944;6.932;2023-10-13T06:13:20;2.90;;;2.20;;
7340;SDS011;6870;50.944;6.932;2023-10-13T06:16:05;3.60;;;2.30;;
7340;SDS011;6870;50.944;6.932;2023-10-13T06:18:51;4.10;;;2.00;;
7340;SDS011;6870;50.944;6.932;2023-10-13T06:21:37;2.90;;;2.43;;
7340;SDS011;6870;50.944;6.932;2023-10-13T06:24:23;3.10;;;2.30;;
7340;SDS011;6870;50.944;6.932;2023-10-13T06:27:10;3.80;;;2.10;;
7340;SDS011;6870;50.944;6.932;2023-10-13T06:29:56;6.93;;;2.57;;
7340;SDS011;6870;50.944;6.932;2023-10-13T06:32:24;5.63;;;2.90;;
7340;SDS011;6870;50.944;6.932;2023-10-13T06:34:53;3.53;;;2.63;;
7340;SDS011;6870;50.944;6.932;2023-10-13T06:37:24;8.83;;;3.00;;
7340;SDS011;6870;50.944;6.932;2023-10-13T06:39:57;7.47;;;3.60;;
7340;SDS011;6870;50.944;6.932;2023-10-13T06:42:34;7.50;;;3.30;;
7340;SDS011;6870;50.944;6.932;2023-10-13T06:45:06;8.10;;;5.10;;
7340;SDS011;6870;50.944;6.932;2023-10-13T06:47:35;10.20;;;5.07;;
7340;SDS011;6870;50.944;6.932;2023-10-13T06:50:09;5.30;;;4.80;;
7340;SDS011;6870;50.944;6.932;2023-10-13T06:52:41;8.00;;;4.80;;
7340;SDS011;6870;50.944;6.932;2023-10-13T06:55:10;9.43;;;4.93;;
7340;SDS011;6870;50.944;6.932;2023-10-13T06:57:44;12.70;;;4.40;;
7340;SDS011;6870;50.944;6.932;2023-10-13T07:00:13;8.03;;;4.50;;
7340;SDS011;6870;50.944;6.932;2023-10-13T07:02:54;6.17;;;4.10;;
7340;SDS011;6870;50.944;6.932;2023-10-13T07:05:35;11.27;;;5.17;;
7340;SDS011;6870;50.944;6.932;2023-10-13T07:08:05;8.10;;;4.80;;
7340;SDS011;6870;50.944;6.932;2023-10-13T07:10:35;10.77;;;4.60;;
7340;SDS011;6870;50.944;6.932;2023-10-13T07:13:16;6.07;;;4.43;;
7340;SDS011;6870;50.944;6.932;2023-10-13T07:15:45;14.77;;;5.33;;
7340;SDS011;6870;50.944;6.932;2023-10-13T07:18:14;12.10;;;5.40;;
7340;SDS011;6870;50.944;6.932;2023-10-13T07:20:44;11.30;;;5.50;;
7340;SDS011;6870;50.944;6.932;2023-10-13T07:23:12;17.03;;;5.30;;
7340;SDS011;6870;50.944;6.932;2023-10-13T07:25:51;9.10;;;4.20;;
7340;SDS011;6870;50.944;6.932;2023-10-13T07:28:22;8.13;;;5.00;;
7340;SDS011;6870;50.944;6.932;2023-10-13T07:30:50;9.30;;;4.60;;
7340;SDS011;6870;50.944;6.932;2023-10-13T07:33:38;10.50;;;5.50;;
7340;SDS011;6870;50.944;6.932;2023-10-13T07:36:08;7.20;;;5.13;;
7340;SDS011;6870;50.944;6.932;2023-10-13T07:38:44;12.00;;;6.03;;
7340;SDS011;6870;50.944;6.932;2023-10-13T07:41:46;10.63;;;5.53;;
7340;SDS011;6870;50.944;6.932;2023-10-13T07:44:22;8.57;;;4.77;;
7340;SDS011;6870;50.944;6.932;2023-10-13T07:46:55;12.13;;;5.33;;
7340;SDS011;6870;50.944;6.932;2023-10-13T07:49:27;8.60;;;5.13;;
7340;SDS011;6870;50.944;6.932;2023-10-13T07:52:05;8.80;;;4.97;;
7340;SDS011;6870;50.944;6.932;2023-10-13T07:54:54;8.90;;;5.07;;
7340;SDS011;6870;50.944;6.932;2023-10-13T07:57:38;6.37;;;4.07;;
7340;SDS011;6870;50.944;6.932;2023-10-13T08:00:21;6.73;;;4.13;;
7340;SDS011;6870;50.944;6.932;2023-10-13T08:02:56;9.30;;;5.07;;
7340;SDS011;6870;50.944;6.932;2023-10-13T08:05:35;7.13;;;4.33;;
7340;SDS011;6870;50.944;6.932;2023-10-13T08:08:22;5.40;;;4.27;;
7340;SDS011;6870;50.944;6.932;2023-10-13T08:10:52;8.70;;;4.10;;
7340;SDS011;6870;50.944;6.932;2023-10-13T08:13:23;7.63;;;4.60;;
7340;SDS011;6870;50.944;6.932;2023-10-13T08:15:54;5.37;;;3.70;;
7340;SDS011;6870;50.944;6.932;2023-10-13T08:18:27;6.70;;;4.70;;
7340;SDS011;6870;50.944;6.932;2023-10-13T08:20:57;5.80;;;3.53;;
7340;SDS011;6870;50.944;6.932;2023-10-13T08:23:29;6.77;;;4.57;;
7340;SDS011;6870;50.944;6.932;2023-10-13T08:26:16;7.07;;;4.77;;
7340;SDS011;6870;50.944;6.932;2023-10-13T08:29:05;5.90;;;4.77;;
7340;SDS011;6870;50.944;6.932;2023-10-13T08:31:49;8.70;;;4.30;;
7340;SDS011;6870;50.944;6.932;2023-10-13T08:34:40;6.53;;;4.10;;
7340;SDS011;6870;50.944;6.932;2023-10-13T08:37:26;6.67;;;4.13;;
7340;SDS011;6870;50.944;6.932;2023-10-13T08:40:02;4.93;;;3.80;;
7340;SDS011;6870;50.944;6.932;2023-10-13T08:43:03;6.87;;;4.30;;
7340;SDS011;6870;50.944;6.932;2023-10-13T08:45:38;7.43;;;4.20;;
7340;SDS011;6870;50.944;6.932;2023-10-13T08:48:21;9.83;;;4.23;;
7340;SDS011;6870;50.944;6.932;2023-10-13T08:50:57;7.70;;;4.00;;
7340;SDS011;6870;50.944;6.932;2023-10-13T08:53:37;10.17;;;4.50;;
7340;SDS011;6870;50.944;6.932;2023-10-13T08:56:18;6.23;;;4.30;;
7340;SDS011;6870;50.944;6.932;2023-10-13T08:59:00;12.37;;;5.10;;
7340;SDS011;6870;50.944;6.932;2023-10-13T09:01:36;8.23;;;4.90;;
7340;SDS011;6870;50.944;6.932;2023-10-13T09:04:14;9.37;;;4.37;;
7340;SDS011;6870;50.944;6.932;2023-10-13T09:06:49;7.40;;;5.27;;
7340;SDS011;6870;50.944;6.932;2023-10-13T09:09:34;8.40;;;4.87;;
7340;SDS011;6870;50.944;6.932;2023-10-13T09:12:37;12.33;;;6.00;;
7340;SDS011;6870;50.944;6.932;2023-10-13T09:15:30;10.97;;;5.60;;
7340;SDS011;6870;50.944;6.932;2023-10-13T09:18:23;10.33;;;5.50;;
7340;SDS011;6870;50.944;6.932;2023-10-13T09:21:10;15.23;;;5.43;;
7340;SDS011;6870;50.944;6.932;2023-10-13T09:24:10;8.73;;;4.67;;
7340;SDS011;6870;50.944;6.932;2023-10-13T09:26:57;8.03;;;5.00;;
7340;SDS011;6870;50.944;6.932;2023-10-13T09:29:28;9.30;;;5.70;;
7340;SDS011;6870;50.944;6.932;2023-10-13T09:31:59;9.70;;;5.80;;
7340;SDS011;6870;50.944;6.932;2023-10-13T09:34:30;12.83;;;5.70;;
7340;SDS011;6870;50.944;6.932;2023-10-13T09:37:02;11.13;;;6.17;;
7340;SDS011;6870;50.944;6.932;2023-10-13T09:39:31;8.27;;;5.23;;
7340;SDS011;6870;50.944;6.932;2023-10-13T09:42:11;7.77;;;5.13;;
7340;SDS011;6870;50.944;6.932;2023-10-13T09:44:43;11.60;;;5.07;;
7340;SDS011;6870;50.944;6.932;2023-10-13T09:47:20;8.20;;;5.60;;
7340;SDS011;6870;50.944;6.932;2023-10-13T09:49:59;11.03;;;5.33;;
7340;SDS011;6870;50.944;6.932;2023-10-13T09:52:34;8.70;;;4.47;;
7340;SDS011;6870;50.944;6.932;2023-10-13T09:55:10;10.93;;;5.77;;
7340;SDS011;6870;50.944;6.932;2023-10-13T09:57:47;9.50;;;5.50;;
7340;SDS011;6870;50.944;6.932;2023-10-13T10:00:24;7.80;;;5.17;;
7340;SDS011;6870;50.944;6.932;2023-10-13T10:03:10;6.40;;;4.87;;
7340;SDS011;6870;50.944;6.932;2023-10-13T10:05:57;9.13;;;5.70;;
7340;SDS011;6870;50.944;6.932;2023-10-13T10:08:33;7.03;;;4.07;;
7340;SDS011;6870;50.944;6.932;2023-10-13T10:11:07;8.30;;;4.80;;
7340;SDS011;6870;50.944;6.932;2023-10-13T10:13:49;8.57;;;4.70;;
7340;SDS011;6870;50.944;6.932;2023-10-13T10:16:29;6.63;;;5.20;;
7340;SDS011;6870;50.944;6.932;2023-10-13T10:19:13;11.13;;;5.60;;
7340;SDS011;6870;50.944;6.932;2023-10-13T10:21:41;11.63;;;5.27;;
7340;SDS011;6870;50.944;6.932;2023-10-13T10:24:14;8.63;;;5.27;;
7340;SDS011;6870;50.944;6.932;2023-10-13T10:26:56;6.27;;;4.77;;
7340;SDS011;6870;50.944;6.932;2023-10-13T10:29:24;8.27;;;5.27;;
7340;SDS011;6870;50.944;6.932;2023-10-13T10:31:52;8.50;;;5.13;;
7340;SDS011;6870;50.944;6.932;2023-10-13T10:34:20;6.40;;;5.03;;
7340;SDS011;6870;50.944;6.932;2023-10-13T10:36:58;5.00;;;4.47;;
7340;SDS011;6870;50.944;6.932;2023-10-13T10:39:34;8.87;;;4.77;;
7340;SDS011;6870;50.944;6.932;2023-10-13T10:42:11;6.10;;;4.67;;
7340;SDS011;6870;50.944;6.932;2023-10-13T10:44:49;8.53;;;5.07;;
7340;SDS011;6870;50.944;6.932;2023-10-13T10:47:21;7.60;;;4.70;;
7340;SDS011;6870;50.944;6.932;2023-10-13T10:50:00;7.30;;;4.53;;
7340;SDS011;6870;50.944;6.932;2023-10-13T10:52:34;5.90;;;4.57;;
7340;SDS011;6870;50.944;6.932;2023-10-13T10:55:07;6.00;;;4.00;;
7340;SDS011;6870;50.944;6.932;2023-10-13T10:57:40;9.40;;;4.20;;
7340;SDS011;6870;50.944;6.932;2023-10-13T11:00:17;5.50;;;4.20;;
7340;SDS011;6870;50.944;6.932;2023-10-13T11:02:53;6.43;;;5.07;;
7340;SDS011;6870;50.944;6.932;2023-10-13T11:05:22;5.27;;;4.67;;
7340;SDS011;6870;50.944;6.932;2023-10-13T11:07:55;5.50;;;4.40;;
7340;SDS011;6870;50.944;6.932;2023-10-13T11:10:24;5.03;;;4.20;;
7340;SDS011;6870;50.944;6.932;2023-10-13T11:12:55;5.73;;;4.20;;
7340;SDS011;6870;50.944;6.932;2023-10-13T11:15:41;6.93;;;4.00;;
7340;SDS011;6870;50.944;6.932;2023-10-13T11:18:11;6.90;;;4.50;;
7340;SDS011;6870;50.944;6.932;2023-10-13T11:20:47;5.90;;;4.60;;
7340;SDS011;6870;50.944;6.932;2023-10-13T11:23:20;5.37;;;4.87;;
7340;SDS011;6870;50.944;6.932;2023-10-13T11:25:57;14.30;;;9.27;;
7340;SDS011;6870;50.944;6.932;2023-10-13T11:28:26;16.33;;;11.40;;
7340;SDS011;6870;50.944;6.932;2023-10-13T11:30:54;15.17;;;10.87;;
7340;SDS011;6870;50.944;6.932;2023-10-13T11:33:25;12.70;;;11.40;;
7340;SDS011;6870;50.944;6.932;2023-10-13T11:35:55;18.07;;;10.97;;
7340;SDS011;6870;50.944;6.932;2023-10-13T11:38:24;11.40;;;9.70;;
7340;SDS011;6870;50.944;6.932;2023-10-13T11:40:54;14.60;;;9.90;;
7340;SDS011;6870;50.944;6.932;2023-10-13T11:43:40;13.57;;;9.40;;
7340;SDS011;6870;50.944;6.932;2023-10-13T11:46:27;13.57;;;9.60;;
7340;SDS011;6870;50.944;6.932;2023-10-13T11:49:13;12.43;;;9.03;;
7340;SDS011;6870;50.944;6.932;2023-10-13T11:51:45;15.90;;;8.57;;
7340;SDS011;6870;50.944;6.932;2023-10-13T11:54:14;15.63;;;8.80;;
7340;SDS011;6870;50.944;6.932;2023-10-13T11:56:44;9.63;;;8.20;;
7340;SDS011;6870;50.944;6.932;2023-10-13T11:59:14;11.20;;;9.23;;
7340;SDS011;6870;50.944;6.932;2023-10-13T12:01:50;11.73;;;9.03;;
7340;SDS011;6870;50.944;6.932;2023-10-13T12:04:38;14.87;;;9.07;;
7340;SDS011;6870;50.944;6.932;2023-10-13T12:07:10;12.23;;;8.40;;
7340;SDS011;6870;50.944;6.932;2023-10-13T12:09:43;13.03;;;8.07;;
7340;SDS011;6870;50.944;6.932;2023-10-13T12:12:26;12.63;;;8.90;;
7340;SDS011;6870;50.944;6.932;2023-10-13T12:14:58;15.80;;;9.53;;
7340;SDS011;6870;50.944;6.932;2023-10-13T12:17:35;11.57;;;7.33;;
7340;SDS011;6870;50.944;6.932;2023-10-13T12:20:06;9.57;;;8.57;;
7340;SDS011;6870;50.944;6.932;2023-10-13T12:22:37;13.83;;;7.97;;
7340;SDS011;6870;50.944;6.932;2023-10-13T12:25:06;11.20;;;7.97;;
7340;SDS011;6870;50.944;6.932;2023-10-13T12:27:52;11.00;;;8.10;;
7340;SDS011;6870;50.944;6.932;2023-10-13T12:30:24;11.33;;;7.97;;
7340;SDS011;6870;50.944;6.932;2023-10-13T12:33:15;9.10;;;8.13;;
7340;SDS011;6870;50.944;6.932;2023-10-13T12:35:55;10.30;;;8.07;;
7340;SDS011;6870;50.944;6.932;2023-10-13T12:38:38;12.83;;;7.57;;
7340;SDS011;6870;50.944;6.932;2023-10-13T12:41:38;12.63;;;8.40;;
7340;SDS011;6870;50.944;6.932;2023-10-13T12:44:23;12.10;;;8.50;;
7340;SDS011;6870;50.944;6.932;2023-10-13T12:47:11;13.67;;;8.07;;
7340;SDS011;6870;50.944;6.932;2023-10-13T12:49:56;12.40;;;8.43;;
7340;SDS011;6870;50.944;6.932;2023-10-13T12:52:34;8.60;;;7.50;;
7340;SDS011;6870;50.944;6.932;2023-10-13T12:55:02;7.77;;;6.33;;
7340;SDS011;6870;50.944;6.932;2023-10-13T12:57:36;9.30;;;7.77;;
7340;SDS011;6870;50.944;6.932;2023-10-13T13:00:13;7.90;;;6.90;;
7340;SDS011;6870;50.944;6.932;2023-10-13T13:02:49;9.70;;;7.50;;
7340;SDS011;6870;50.944;6.932;2023-10-13T13:05:18;8.43;;;7.33;;
7340;SDS011;6870;50.944;6.932;2023-10-13T13:07:49;10.07;;;7.30;;
7340;SDS011;6870;50.944;6.932;2023-10-13T13:10:20;9.53;;;7.63;;
7340;SDS011;6870;50.944;6.932;2023-10-13T13:13:02;9.03;;;6.77;;
7340;SDS011;6870;50.944;6.932;2023-10-13T13:15:31;6.97;;;6.30;;
7340;SDS011;6870;50.944;6.932;2023-10-13T13:18:01;10.13;;;7.70;;
7340;SDS011;6870;50.944;6.932;2023-10-13T13:20:37;8.27;;;6.60;;
7340;SDS011;6870;50.944;6.932;2023-10-13T13:23:11;8.07;;;6.77;;
7340;SDS011;6870;50.944;6.932;2023-10-13T13:25:44;7.57;;;6.67;;
7340;SDS011;6870;50.944;6.932;2023-10-13T13:28:13;7.20;;;5.60;;
7340;SDS011;6870;50.944;6.932;2023-10-13T13:30:41;7.77;;;6.97;;
7340;SDS011;6870;50.944;6.932;2023-10-13T13:33:11;7.27;;;5.97;;
7340;SDS011;6870;50.944;6.932;2023-10-13T13:35:40;8.70;;;7.00;;
7340;SDS011;6870;50.944;6.932;2023-10-13T13:38:09;6.80;;;6.10;;
7340;SDS011;6870;50.944;6.932;2023-10-13T13:40:43;7.87;;;7.07;;
7340;SDS011;6870;50.944;6.932;2023-10-13T13:43:15;9.57;;;7.10;;
7340;SDS011;6870;50.944;6.932;2023-10-13T13:45:58;9.03;;;7.20;;
7340;SDS011;6870;50.944;6.932;2023-10-13T13:48:28;8.30;;;7.00;;
7340;SDS011;6870;50.944;6.932;2023-10-13T13:50:58;7.23;;;6.03;;
7340;SDS011;6870;50.944;6.932;2023-10-13T13:53:32;10.00;;;6.30;;
7340;SDS011;6870;50.944;6.932;2023-10-13T13:56:04;10.63;;;5.90;;
7340;SDS011;6870;50.944;6.932;2023-10-13T13:58:32;15.50;;;6.77;;
7340;SDS011;6870;50.944;6.932;2023-10-13T14:01:00;7.77;;;5.37;;
7340;SDS011;6870;50.944;6.932;2023-10-13T14:03:40;11.63;;;5.77;;
7340;SDS011;6870;50.944;6.932;2023-10-13T14:06:12;9.20;;;4.93;;
7340;SDS011;6870;50.944;6.932;2023-10-13T14:08:44;15.50;;;6.10;;
7340;SDS011;6870;50.944;6.932;2023-10-13T14:11:15;8.77;;;6.10;;
7340;SDS011;6870;50.944;6.932;2023-10-13T14:13:57;9.20;;;5.80;;
7340;SDS011;6870;50.944;6.932;2023-10-13T14:16:27;10.83;;;5.50;;
7340;SDS011;6870;50.944;6.932;2023-10-13T14:18:57;24.77;;;7.17;;
7340;SDS011;6870;50.944;6.932;2023-10-13T14:21:25;8.70;;;6.00;;
7340;SDS011;6870;50.944;6.932;2023-10-13T14:23:54;17.37;;;6.27;;
7340;SDS011;6870;50.944;6.932;2023-10-13T14:26:22;19.07;;;7.07;;
7340;SDS011;6870;50.944;6.932;2023-10-13T14:28:51;14.20;;;6.83;;
7340;SDS011;6870;50.944;6.932;2023-10-13T14:31:28;17.23;;;6.60;;
7340;SDS011;6870;50.944;6.932;2023-10-13T14:33:58;15.50;;;7.20;;
7340;SDS011;6870;50.944;6.932;2023-10-13T14:36:26;15.50;;;6.30;;
7340;SDS011;6870;50.944;6.932;2023-10-13T14:38:55;18.87;;;6.67;;
7340;SDS011;6870;50.944;6.932;2023-10-13T14:41:23;13.80;;;6.43;;
7340;SDS011;6870;50.944;6.932;2023-10-13T14:43:51;15.00;;;5.93;;
7340;SDS011;6870;50.944;6.932;2023-10-13T14:46:23;9.27;;;5.83;;
7340;SDS011;6870;50.944;6.932;2023-10-13T14:48:51;13.33;;;6.30;;
7340;SDS011;6870;50.944;6.932;2023-10-13T14:51:21;15.37;;;6.00;;
7340;SDS011;6870;50.944;6.932;2023-10-13T14:53:51;12.13;;;6.07;;
7340;SDS011;6870;50.944;6.932;2023-10-13T14:56:22;9.90;;;6.13;;
7340;SDS011;6870;50.944;6.932;2023-10-13T14:58:52;11.13;;;5.33;;
7340;SDS011;6870;50.944;6.932;2023-10-13T15:01:21;12.00;;;6.60;;
7340;SDS011;6870;50.944;6.932;2023-10-13T15:03:53;14.77;;;5.93;;
7340;SDS011;6870;50.944;6.932;2023-10-13T15:06:24;12.33;;;6.10;;
7340;SDS011;6870;50.944;6.932;2023-10-13T15:08:55;7.97;;;4.80;;
7340;SDS011;6870;50.944;6.932;2023-10-13T15:11:25;8.40;;;5.33;;
7340;SDS011;6870;50.944;6.932;2023-10-13T15:14:14;8.40;;;5.50;;
7340;SDS011;6870;50.944;6.932;2023-10-13T15:16:42;11.10;;;5.33;;
7340;SDS011;6870;50.944;6.932;2023-10-13T15:19:11;8.00;;;5.43;;
7340;SDS011;6870;50.944;6.932;2023-10-13T15:21:40;11.20;;;6.03;;
7340;SDS011;6870;50.944;6.932;2023-10-13T15:24:09;11.77;;;5.20;;
7340;SDS011;6870;50.944;6.932;2023-10-13T15:26:43;9.20;;;5.67;;
7340;SDS011;6870;50.944;6.932;2023-10-13T15:29:15;9.70;;;5.30;;
7340;SDS011;6870;50.944;6.932;2023-10-13T15:31:43;8.37;;;5.17;;
7340;SDS011;6870;50.944;6.932;2023-10-13T15:34:31;7.90;;;5.27;;
7340;SDS011;6870;50.944;6.932;2023-10-13T15:37:01;9.57;;;5.40;;
7340;SDS011;6870;50.944;6.932;2023-10-13T15:39:31;9.67;;;5.40;;
7340;SDS011;6870;50.944;6.932;2023-10-13T15:41:59;8.20;;;5.20;;
7340;SDS011;6870;50.944;6.932;2023-10-13T15:44:28;7.10;;;5.10;;
7340;SDS011;6870;50.944;6.932;2023-10-13T15:46:57;6.60;;;4.97;;
7340;SDS011;6870;50.944;6.932;2023-10-13T15:49:46;9.05;;;5.60;;
7340;SDS011;6870;50.944;6.932;2023-10-13T15:52:16;7.57;;;5.50;;
7340;SDS011;6870;50.944;6.932;2023-10-13T15:54:45;7.00;;;5.20;;
7340;SDS011;6870;50.944;6.932;2023-10-13T15:57:13;7.53;;;4.63;;
7340;SDS011;6870;50.944;6.932;2023-10-13T15:59:43;10.17;;;4.90;;
7340;SDS011;6870;50.944;6.932;2023-10-13T16:02:13;8.30;;;5.10;;
7340;SDS011;6870;50.944;6.932;2023-10-13T16:04:43;9.23;;;5.50;;